<?xml version="1.0" encoding="UTF-8" standalone="no" ?>
<gpx xmlns="http://www.topografix.com/GPX/1/1" xmlns:xsi="http://www.w3.org/2001/XMLSchema-instance" xsi:schemaLocation="http://www.topografix.com/GPX/1/1 http://www.topografix.com/GPX/1/1/gpx.xsd" version="1.1" creator="VisuGPX - https://www.visugpx.com">
  <metadata>
    <name>le saut du doubs</name>
  </metadata>
  <trk>
    <name><![CDATA[Saut du doubs-18403046]]></name>
    <trkseg>
      <trkpt lat="47.08554" lon="6.70226">
        <ele>896</ele>
        <time>2024-11-10T06:14:03Z</time>
      </trkpt>
      <trkpt lat="47.08552" lon="6.70225">
        <ele>896</ele>
        <time>2024-11-10T06:14:06Z</time>
      </trkpt>
      <trkpt lat="47.08545" lon="6.70269">
        <ele>892</ele>
        <time>2024-11-10T06:14:47Z</time>
      </trkpt>
      <trkpt lat="47.08536" lon="6.7031">
        <ele>890</ele>
        <time>2024-11-10T06:15:26Z</time>
      </trkpt>
      <trkpt lat="47.0853" lon="6.70341">
        <ele>889</ele>
        <time>2024-11-10T06:15:55Z</time>
      </trkpt>
      <trkpt lat="47.08526" lon="6.70357">
        <ele>888</ele>
        <time>2024-11-10T06:16:11Z</time>
      </trkpt>
      <trkpt lat="47.08513" lon="6.70447">
        <ele>883</ele>
        <time>2024-11-10T06:17:34Z</time>
      </trkpt>
      <trkpt lat="47.08516" lon="6.7047">
        <ele>881</ele>
        <time>2024-11-10T06:17:56Z</time>
      </trkpt>
      <trkpt lat="47.08517" lon="6.70517">
        <ele>876</ele>
        <time>2024-11-10T06:18:38Z</time>
      </trkpt>
      <trkpt lat="47.08521" lon="6.70568">
        <ele>871</ele>
        <time>2024-11-10T06:19:25Z</time>
      </trkpt>
      <trkpt lat="47.08525" lon="6.70583">
        <ele>870</ele>
        <time>2024-11-10T06:19:40Z</time>
      </trkpt>
      <trkpt lat="47.08529" lon="6.70592">
        <ele>868</ele>
        <time>2024-11-10T06:19:49Z</time>
      </trkpt>
      <trkpt lat="47.08536" lon="6.70602">
        <ele>867</ele>
        <time>2024-11-10T06:20:02Z</time>
      </trkpt>
      <trkpt lat="47.08556" lon="6.70616">
        <ele>867</ele>
        <time>2024-11-10T06:20:32Z</time>
      </trkpt>
      <trkpt lat="47.0858" lon="6.70628">
        <ele>868</ele>
        <time>2024-11-10T06:21:06Z</time>
      </trkpt>
      <trkpt lat="47.08626" lon="6.70669">
        <ele>866</ele>
        <time>2024-11-10T06:22:18Z</time>
      </trkpt>
      <trkpt lat="47.08646" lon="6.70696">
        <ele>858</ele>
        <time>2024-11-10T06:22:54Z</time>
      </trkpt>
      <trkpt lat="47.08682" lon="6.70708">
        <ele>855</ele>
        <time>2024-11-10T06:23:43Z</time>
      </trkpt>
      <trkpt lat="47.08718" lon="6.70709">
        <ele>852</ele>
        <time>2024-11-10T06:24:31Z</time>
      </trkpt>
      <trkpt lat="47.08756" lon="6.707">
        <ele>856</ele>
        <time>2024-11-10T06:25:23Z</time>
      </trkpt>
      <trkpt lat="47.08772" lon="6.70699">
        <ele>859</ele>
        <time>2024-11-10T06:25:44Z</time>
      </trkpt>
      <trkpt lat="47.08778" lon="6.70701">
        <ele>859</ele>
        <time>2024-11-10T06:25:52Z</time>
      </trkpt>
      <trkpt lat="47.08818" lon="6.70728">
        <ele>853</ele>
        <time>2024-11-10T06:26:51Z</time>
      </trkpt>
      <trkpt lat="47.08831" lon="6.70739">
        <ele>851</ele>
        <time>2024-11-10T06:27:11Z</time>
      </trkpt>
      <trkpt lat="47.08848" lon="6.70759">
        <ele>849</ele>
        <time>2024-11-10T06:27:40Z</time>
      </trkpt>
      <trkpt lat="47.0886" lon="6.70778">
        <ele>849</ele>
        <time>2024-11-10T06:28:04Z</time>
      </trkpt>
      <trkpt lat="47.08916" lon="6.70852">
        <ele>848</ele>
        <time>2024-11-10T06:29:44Z</time>
      </trkpt>
      <trkpt lat="47.08924" lon="6.7086">
        <ele>849</ele>
        <time>2024-11-10T06:29:57Z</time>
      </trkpt>
      <trkpt lat="47.08933" lon="6.70866">
        <ele>850</ele>
        <time>2024-11-10T06:30:10Z</time>
      </trkpt>
      <trkpt lat="47.08939" lon="6.70867">
        <ele>851</ele>
        <time>2024-11-10T06:30:18Z</time>
      </trkpt>
      <trkpt lat="47.08976" lon="6.70862">
        <ele>859</ele>
        <time>2024-11-10T06:31:08Z</time>
      </trkpt>
      <trkpt lat="47.0901" lon="6.70864">
        <ele>868</ele>
        <time>2024-11-10T06:31:53Z</time>
      </trkpt>
      <trkpt lat="47.09016" lon="6.70873">
        <ele>868</ele>
        <time>2024-11-10T06:32:05Z</time>
      </trkpt>
      <trkpt lat="47.0902" lon="6.70884">
        <ele>867</ele>
        <time>2024-11-10T06:32:16Z</time>
      </trkpt>
      <trkpt lat="47.09021" lon="6.70895">
        <ele>864</ele>
        <time>2024-11-10T06:32:26Z</time>
      </trkpt>
      <trkpt lat="47.09018" lon="6.70917">
        <ele>857</ele>
        <time>2024-11-10T06:32:46Z</time>
      </trkpt>
      <trkpt lat="47.09018" lon="6.7093">
        <ele>855</ele>
        <time>2024-11-10T06:32:58Z</time>
      </trkpt>
      <trkpt lat="47.09027" lon="6.70979">
        <ele>849</ele>
        <time>2024-11-10T06:33:44Z</time>
      </trkpt>
      <trkpt lat="47.09028" lon="6.71007">
        <ele>845</ele>
        <time>2024-11-10T06:34:10Z</time>
      </trkpt>
      <trkpt lat="47.09022" lon="6.71025">
        <ele>841</ele>
        <time>2024-11-10T06:34:28Z</time>
      </trkpt>
      <trkpt lat="47.09013" lon="6.71037">
        <ele>836</ele>
        <time>2024-11-10T06:34:44Z</time>
      </trkpt>
      <trkpt lat="47.09005" lon="6.71056">
        <ele>831</ele>
        <time>2024-11-10T06:35:05Z</time>
      </trkpt>
      <trkpt lat="47.09006" lon="6.71071">
        <ele>830</ele>
        <time>2024-11-10T06:35:18Z</time>
      </trkpt>
      <trkpt lat="47.09004" lon="6.71107">
        <ele>828</ele>
        <time>2024-11-10T06:35:51Z</time>
      </trkpt>
      <trkpt lat="47.09006" lon="6.71191">
        <ele>828</ele>
        <time>2024-11-10T06:37:07Z</time>
      </trkpt>
      <trkpt lat="47.09005" lon="6.71206">
        <ele>828</ele>
        <time>2024-11-10T06:37:21Z</time>
      </trkpt>
      <trkpt lat="47.09" lon="6.71241">
        <ele>825</ele>
        <time>2024-11-10T06:37:54Z</time>
      </trkpt>
      <trkpt lat="47.08999" lon="6.71283">
        <ele>823</ele>
        <time>2024-11-10T06:38:32Z</time>
      </trkpt>
      <trkpt lat="47.09006" lon="6.71353">
        <ele>826</ele>
        <time>2024-11-10T06:39:36Z</time>
      </trkpt>
      <trkpt lat="47.09003" lon="6.7143">
        <ele>828</ele>
        <time>2024-11-10T06:40:46Z</time>
      </trkpt>
      <trkpt lat="47.08997" lon="6.71454">
        <ele>826</ele>
        <time>2024-11-10T06:41:09Z</time>
      </trkpt>
      <trkpt lat="47.08992" lon="6.71488">
        <ele>825</ele>
        <time>2024-11-10T06:41:41Z</time>
      </trkpt>
      <trkpt lat="47.08995" lon="6.71539">
        <ele>821</ele>
        <time>2024-11-10T06:42:28Z</time>
      </trkpt>
      <trkpt lat="47.09" lon="6.71554">
        <ele>822</ele>
        <time>2024-11-10T06:42:43Z</time>
      </trkpt>
      <trkpt lat="47.0903" lon="6.71573">
        <ele>839</ele>
        <time>2024-11-10T06:43:26Z</time>
      </trkpt>
      <trkpt lat="47.09037" lon="6.71583">
        <ele>842</ele>
        <time>2024-11-10T06:43:39Z</time>
      </trkpt>
      <trkpt lat="47.09035" lon="6.71632">
        <ele>832</ele>
        <time>2024-11-10T06:44:24Z</time>
      </trkpt>
      <trkpt lat="47.09036" lon="6.71648">
        <ele>830</ele>
        <time>2024-11-10T06:44:39Z</time>
      </trkpt>
      <trkpt lat="47.09067" lon="6.71704">
        <ele>846</ele>
        <time>2024-11-10T06:45:44Z</time>
      </trkpt>
      <trkpt lat="47.09088" lon="6.71785">
        <ele>853</ele>
        <time>2024-11-10T06:47:03Z</time>
      </trkpt>
      <trkpt lat="47.09105" lon="6.7184">
        <ele>856</ele>
        <time>2024-11-10T06:47:58Z</time>
      </trkpt>
      <trkpt lat="47.09108" lon="6.71852">
        <ele>857</ele>
        <time>2024-11-10T06:48:09Z</time>
      </trkpt>
      <trkpt lat="47.09124" lon="6.71919">
        <ele>862</ele>
        <time>2024-11-10T06:49:14Z</time>
      </trkpt>
      <trkpt lat="47.09128" lon="6.71959">
        <ele>865</ele>
        <time>2024-11-10T06:49:51Z</time>
      </trkpt>
      <trkpt lat="47.09141" lon="6.71989">
        <ele>873</ele>
        <time>2024-11-10T06:50:23Z</time>
      </trkpt>
      <trkpt lat="47.09145" lon="6.72002">
        <ele>875</ele>
        <time>2024-11-10T06:50:36Z</time>
      </trkpt>
      <trkpt lat="47.09249" lon="6.72202">
        <ele>877</ele>
        <time>2024-11-10T06:54:25Z</time>
      </trkpt>
      <trkpt lat="47.09263" lon="6.7222">
        <ele>877</ele>
        <time>2024-11-10T06:54:49Z</time>
      </trkpt>
      <trkpt lat="47.09279" lon="6.72249">
        <ele>876</ele>
        <time>2024-11-10T06:55:23Z</time>
      </trkpt>
      <trkpt lat="47.09293" lon="6.72281">
        <ele>873</ele>
        <time>2024-11-10T06:55:58Z</time>
      </trkpt>
      <trkpt lat="47.09303" lon="6.72293">
        <ele>874</ele>
        <time>2024-11-10T06:56:15Z</time>
      </trkpt>
      <trkpt lat="47.09309" lon="6.72311">
        <ele>873</ele>
        <time>2024-11-10T06:56:33Z</time>
      </trkpt>
      <trkpt lat="47.09334" lon="6.72358">
        <ele>875</ele>
        <time>2024-11-10T06:57:27Z</time>
      </trkpt>
      <trkpt lat="47.09348" lon="6.72401">
        <ele>872</ele>
        <time>2024-11-10T06:58:11Z</time>
      </trkpt>
      <trkpt lat="47.09357" lon="6.72436">
        <ele>871</ele>
        <time>2024-11-10T06:58:45Z</time>
      </trkpt>
      <trkpt lat="47.09373" lon="6.72476">
        <ele>872</ele>
        <time>2024-11-10T06:59:27Z</time>
      </trkpt>
      <trkpt lat="47.09379" lon="6.72507">
        <ele>872</ele>
        <time>2024-11-10T06:59:56Z</time>
      </trkpt>
      <trkpt lat="47.0938" lon="6.72532">
        <ele>872</ele>
        <time>2024-11-10T07:00:19Z</time>
      </trkpt>
      <trkpt lat="47.09378" lon="6.72554">
        <ele>872</ele>
        <time>2024-11-10T07:00:39Z</time>
      </trkpt>
      <trkpt lat="47.0938" lon="6.72566">
        <ele>872</ele>
        <time>2024-11-10T07:00:50Z</time>
      </trkpt>
      <trkpt lat="47.09389" lon="6.72565">
        <ele>877</ele>
        <time>2024-11-10T07:01:02Z</time>
      </trkpt>
      <trkpt lat="47.09388" lon="6.72624">
        <ele>882</ele>
        <time>2024-11-10T07:01:56Z</time>
      </trkpt>
      <trkpt lat="47.09393" lon="6.72665">
        <ele>890</ele>
        <time>2024-11-10T07:02:34Z</time>
      </trkpt>
      <trkpt lat="47.09404" lon="6.72716">
        <ele>906</ele>
        <time>2024-11-10T07:03:22Z</time>
      </trkpt>
      <trkpt lat="47.09402" lon="6.72783">
        <ele>914</ele>
        <time>2024-11-10T07:04:23Z</time>
      </trkpt>
      <trkpt lat="47.09402" lon="6.7286">
        <ele>921</ele>
        <time>2024-11-10T07:05:33Z</time>
      </trkpt>
      <trkpt lat="47.09398" lon="6.7289">
        <ele>921</ele>
        <time>2024-11-10T07:06:01Z</time>
      </trkpt>
      <trkpt lat="47.09398" lon="6.72906">
        <ele>923</ele>
        <time>2024-11-10T07:06:16Z</time>
      </trkpt>
      <trkpt lat="47.094" lon="6.72915">
        <ele>925</ele>
        <time>2024-11-10T07:06:24Z</time>
      </trkpt>
      <trkpt lat="47.09403" lon="6.72934">
        <ele>931</ele>
        <time>2024-11-10T07:06:42Z</time>
      </trkpt>
      <trkpt lat="47.09413" lon="6.72975">
        <ele>948</ele>
        <time>2024-11-10T07:07:22Z</time>
      </trkpt>
      <trkpt lat="47.09433" lon="6.73032">
        <ele>957</ele>
        <time>2024-11-10T07:08:20Z</time>
      </trkpt>
      <trkpt lat="47.09437" lon="6.73051">
        <ele>959</ele>
        <time>2024-11-10T07:08:38Z</time>
      </trkpt>
      <trkpt lat="47.09442" lon="6.73164">
        <ele>966</ele>
        <time>2024-11-10T07:10:21Z</time>
      </trkpt>
      <trkpt lat="47.09447" lon="6.73208">
        <ele>968</ele>
        <time>2024-11-10T07:11:01Z</time>
      </trkpt>
      <trkpt lat="47.09461" lon="6.73266">
        <ele>974</ele>
        <time>2024-11-10T07:11:57Z</time>
      </trkpt>
      <trkpt lat="47.09487" lon="6.73356">
        <ele>984</ele>
        <time>2024-11-10T07:13:26Z</time>
      </trkpt>
      <trkpt lat="47.09493" lon="6.73381">
        <ele>985</ele>
        <time>2024-11-10T07:13:50Z</time>
      </trkpt>
      <trkpt lat="47.09505" lon="6.73447">
        <ele>987</ele>
        <time>2024-11-10T07:14:52Z</time>
      </trkpt>
      <trkpt lat="47.09508" lon="6.73482">
        <ele>988</ele>
        <time>2024-11-10T07:15:24Z</time>
      </trkpt>
      <trkpt lat="47.09513" lon="6.73506">
        <ele>988</ele>
        <time>2024-11-10T07:15:47Z</time>
      </trkpt>
      <trkpt lat="47.09526" lon="6.73533">
        <ele>989</ele>
        <time>2024-11-10T07:16:17Z</time>
      </trkpt>
      <trkpt lat="47.09541" lon="6.73584">
        <ele>996</ele>
        <time>2024-11-10T07:17:07Z</time>
      </trkpt>
      <trkpt lat="47.09545" lon="6.73593">
        <ele>997</ele>
        <time>2024-11-10T07:17:17Z</time>
      </trkpt>
      <trkpt lat="47.09562" lon="6.73633">
        <ele>1005</ele>
        <time>2024-11-10T07:18:00Z</time>
      </trkpt>
      <trkpt lat="47.09583" lon="6.73706">
        <ele>1011</ele>
        <time>2024-11-10T07:19:12Z</time>
      </trkpt>
      <trkpt lat="47.09614" lon="6.73759">
        <ele>1005</ele>
        <time>2024-11-10T07:20:16Z</time>
      </trkpt>
      <trkpt lat="47.09634" lon="6.73773">
        <ele>1005</ele>
        <time>2024-11-10T07:20:45Z</time>
      </trkpt>
      <trkpt lat="47.09657" lon="6.73783">
        <ele>1010</ele>
        <time>2024-11-10T07:21:17Z</time>
      </trkpt>
      <trkpt lat="47.09667" lon="6.73796">
        <ele>1011</ele>
        <time>2024-11-10T07:21:35Z</time>
      </trkpt>
      <trkpt lat="47.0971" lon="6.73878">
        <ele>995</ele>
        <time>2024-11-10T07:23:09Z</time>
      </trkpt>
      <trkpt lat="47.09732" lon="6.73905">
        <ele>996</ele>
        <time>2024-11-10T07:23:47Z</time>
      </trkpt>
      <trkpt lat="47.09759" lon="6.7393">
        <ele>995</ele>
        <time>2024-11-10T07:24:30Z</time>
      </trkpt>
      <trkpt lat="47.09791" lon="6.73947">
        <ele>988</ele>
        <time>2024-11-10T07:25:15Z</time>
      </trkpt>
      <trkpt lat="47.098" lon="6.73954">
        <ele>986</ele>
        <time>2024-11-10T07:25:29Z</time>
      </trkpt>
      <trkpt lat="47.09843" lon="6.73996">
        <ele>983</ele>
        <time>2024-11-10T07:26:38Z</time>
      </trkpt>
      <trkpt lat="47.09875" lon="6.74018">
        <ele>969</ele>
        <time>2024-11-10T07:27:25Z</time>
      </trkpt>
      <trkpt lat="47.09935" lon="6.74048">
        <ele>953</ele>
        <time>2024-11-10T07:28:49Z</time>
      </trkpt>
      <trkpt lat="47.0995" lon="6.74063">
        <ele>946</ele>
        <time>2024-11-10T07:29:14Z</time>
      </trkpt>
      <trkpt lat="47.09946" lon="6.74075">
        <ele>946</ele>
        <time>2024-11-10T07:29:26Z</time>
      </trkpt>
      <trkpt lat="47.09941" lon="6.74079">
        <ele>947</ele>
        <time>2024-11-10T07:29:33Z</time>
      </trkpt>
      <trkpt lat="47.09934" lon="6.74081">
        <ele>949</ele>
        <time>2024-11-10T07:29:43Z</time>
      </trkpt>
      <trkpt lat="47.09909" lon="6.74073">
        <ele>954</ele>
        <time>2024-11-10T07:30:17Z</time>
      </trkpt>
      <trkpt lat="47.09862" lon="6.74079">
        <ele>949</ele>
        <time>2024-11-10T07:31:20Z</time>
      </trkpt>
      <trkpt lat="47.09843" lon="6.74077">
        <ele>948</ele>
        <time>2024-11-10T07:31:45Z</time>
      </trkpt>
      <trkpt lat="47.09804" lon="6.74063">
        <ele>945</ele>
        <time>2024-11-10T07:32:39Z</time>
      </trkpt>
      <trkpt lat="47.09774" lon="6.74045">
        <ele>946</ele>
        <time>2024-11-10T07:33:22Z</time>
      </trkpt>
      <trkpt lat="47.09762" lon="6.74039">
        <ele>946</ele>
        <time>2024-11-10T07:33:39Z</time>
      </trkpt>
      <trkpt lat="47.09711" lon="6.74028">
        <ele>933</ele>
        <time>2024-11-10T07:34:48Z</time>
      </trkpt>
      <trkpt lat="47.09651" lon="6.74001">
        <ele>917</ele>
        <time>2024-11-10T07:36:12Z</time>
      </trkpt>
      <trkpt lat="47.09587" lon="6.73932">
        <ele>909</ele>
        <time>2024-11-10T07:37:58Z</time>
      </trkpt>
      <trkpt lat="47.09611" lon="6.73978">
        <ele>906</ele>
        <time>2024-11-10T07:38:50Z</time>
      </trkpt>
      <trkpt lat="47.09647" lon="6.74048">
        <ele>895</ele>
        <time>2024-11-10T07:40:10Z</time>
      </trkpt>
      <trkpt lat="47.09744" lon="6.74196">
        <ele>863</ele>
        <time>2024-11-10T07:43:17Z</time>
      </trkpt>
      <trkpt lat="47.09867" lon="6.74307">
        <ele>822</ele>
        <time>2024-11-10T07:46:29Z</time>
      </trkpt>
      <trkpt lat="47.09756" lon="6.74292">
        <ele>823</ele>
        <time>2024-11-10T07:48:58Z</time>
      </trkpt>
      <trkpt lat="47.09579" lon="6.74251">
        <ele>787</ele>
        <time>2024-11-10T07:52:57Z</time>
      </trkpt>
      <trkpt lat="47.09604" lon="6.74326">
        <ele>765</ele>
        <time>2024-11-10T07:54:13Z</time>
      </trkpt>
      <trkpt lat="47.09629" lon="6.74367">
        <ele>757</ele>
        <time>2024-11-10T07:55:03Z</time>
      </trkpt>
      <trkpt lat="47.09675" lon="6.74414">
        <ele>746</ele>
        <time>2024-11-10T07:56:18Z</time>
      </trkpt>
      <trkpt lat="47.09751" lon="6.74466">
        <ele>748</ele>
        <time>2024-11-10T07:58:10Z</time>
      </trkpt>
      <trkpt lat="47.0978" lon="6.74498">
        <ele>739</ele>
        <time>2024-11-10T07:58:58Z</time>
      </trkpt>
      <trkpt lat="47.09806" lon="6.74493">
        <ele>742</ele>
        <time>2024-11-10T07:59:33Z</time>
      </trkpt>
      <trkpt lat="47.09826" lon="6.74485">
        <ele>747</ele>
        <time>2024-11-10T08:00:01Z</time>
      </trkpt>
      <trkpt lat="47.09895" lon="6.7449">
        <ele>740</ele>
        <time>2024-11-10T08:01:33Z</time>
      </trkpt>
      <trkpt lat="47.09904" lon="6.74487">
        <ele>741</ele>
        <time>2024-11-10T08:01:45Z</time>
      </trkpt>
      <trkpt lat="47.09909" lon="6.7448">
        <ele>743</ele>
        <time>2024-11-10T08:01:54Z</time>
      </trkpt>
      <trkpt lat="47.09928" lon="6.74438">
        <ele>755</ele>
        <time>2024-11-10T08:02:40Z</time>
      </trkpt>
      <trkpt lat="47.09937" lon="6.7443">
        <ele>755</ele>
        <time>2024-11-10T08:02:54Z</time>
      </trkpt>
      <trkpt lat="47.09958" lon="6.74418">
        <ele>752</ele>
        <time>2024-11-10T08:03:24Z</time>
      </trkpt>
      <trkpt lat="47.09979" lon="6.7441">
        <ele>749</ele>
        <time>2024-11-10T08:03:53Z</time>
      </trkpt>
      <trkpt lat="47.10003" lon="6.74404">
        <ele>746</ele>
        <time>2024-11-10T08:04:26Z</time>
      </trkpt>
      <trkpt lat="47.1002" lon="6.74406">
        <ele>742</ele>
        <time>2024-11-10T08:04:49Z</time>
      </trkpt>
      <trkpt lat="47.10059" lon="6.74392">
        <ele>744</ele>
        <time>2024-11-10T08:05:42Z</time>
      </trkpt>
      <trkpt lat="47.1007" lon="6.74388">
        <ele>745</ele>
        <time>2024-11-10T08:05:57Z</time>
      </trkpt>
      <trkpt lat="47.10078" lon="6.74378">
        <ele>748</ele>
        <time>2024-11-10T08:06:11Z</time>
      </trkpt>
      <trkpt lat="47.10082" lon="6.74377">
        <ele>747</ele>
        <time>2024-11-10T08:06:17Z</time>
      </trkpt>
      <trkpt lat="47.10089" lon="6.74388">
        <ele>739</ele>
        <time>2024-11-10T08:06:30Z</time>
      </trkpt>
      <trkpt lat="47.10082" lon="6.74377">
        <ele>747</ele>
        <time>2024-11-10T08:06:44Z</time>
      </trkpt>
      <trkpt lat="47.10078" lon="6.74378">
        <ele>748</ele>
        <time>2024-11-10T08:06:49Z</time>
      </trkpt>
      <trkpt lat="47.1007" lon="6.74388">
        <ele>745</ele>
        <time>2024-11-10T08:07:03Z</time>
      </trkpt>
      <trkpt lat="47.10059" lon="6.74392">
        <ele>744</ele>
        <time>2024-11-10T08:07:19Z</time>
      </trkpt>
      <trkpt lat="47.1002" lon="6.74406">
        <ele>742</ele>
        <time>2024-11-10T08:08:12Z</time>
      </trkpt>
      <trkpt lat="47.10003" lon="6.74404">
        <ele>746</ele>
        <time>2024-11-10T08:08:35Z</time>
      </trkpt>
      <trkpt lat="47.09979" lon="6.7441">
        <ele>749</ele>
        <time>2024-11-10T08:09:07Z</time>
      </trkpt>
      <trkpt lat="47.09958" lon="6.74418">
        <ele>752</ele>
        <time>2024-11-10T08:09:36Z</time>
      </trkpt>
      <trkpt lat="47.09937" lon="6.7443">
        <ele>755</ele>
        <time>2024-11-10T08:10:06Z</time>
      </trkpt>
      <trkpt lat="47.09928" lon="6.74438">
        <ele>755</ele>
        <time>2024-11-10T08:10:20Z</time>
      </trkpt>
      <trkpt lat="47.09909" lon="6.7448">
        <ele>743</ele>
        <time>2024-11-10T08:11:06Z</time>
      </trkpt>
      <trkpt lat="47.09904" lon="6.74487">
        <ele>741</ele>
        <time>2024-11-10T08:11:16Z</time>
      </trkpt>
      <trkpt lat="47.09895" lon="6.7449">
        <ele>740</ele>
        <time>2024-11-10T08:11:28Z</time>
      </trkpt>
      <trkpt lat="47.09826" lon="6.74485">
        <ele>747</ele>
        <time>2024-11-10T08:13:00Z</time>
      </trkpt>
      <trkpt lat="47.09806" lon="6.74493">
        <ele>742</ele>
        <time>2024-11-10T08:13:28Z</time>
      </trkpt>
      <trkpt lat="47.0978" lon="6.74498">
        <ele>739</ele>
        <time>2024-11-10T08:14:03Z</time>
      </trkpt>
      <trkpt lat="47.09751" lon="6.74466">
        <ele>748</ele>
        <time>2024-11-10T08:14:51Z</time>
      </trkpt>
      <trkpt lat="47.09675" lon="6.74414">
        <ele>746</ele>
        <time>2024-11-10T08:16:43Z</time>
      </trkpt>
      <trkpt lat="47.09629" lon="6.74367">
        <ele>757</ele>
        <time>2024-11-10T08:17:58Z</time>
      </trkpt>
      <trkpt lat="47.09604" lon="6.74326">
        <ele>765</ele>
        <time>2024-11-10T08:18:48Z</time>
      </trkpt>
      <trkpt lat="47.09579" lon="6.74251">
        <ele>787</ele>
        <time>2024-11-10T08:20:04Z</time>
      </trkpt>
      <trkpt lat="47.09523" lon="6.74237">
        <ele>778</ele>
        <time>2024-11-10T08:21:19Z</time>
      </trkpt>
      <trkpt lat="47.0948" lon="6.74239">
        <ele>769</ele>
        <time>2024-11-10T08:22:17Z</time>
      </trkpt>
      <trkpt lat="47.09413" lon="6.74201">
        <ele>765</ele>
        <time>2024-11-10T08:23:53Z</time>
      </trkpt>
      <trkpt lat="47.09381" lon="6.74175">
        <ele>763</ele>
        <time>2024-11-10T08:24:41Z</time>
      </trkpt>
      <trkpt lat="47.09381" lon="6.74179">
        <ele>762</ele>
        <time>2024-11-10T08:24:45Z</time>
      </trkpt>
      <trkpt lat="47.09375" lon="6.74189">
        <ele>759</ele>
        <time>2024-11-10T08:24:57Z</time>
      </trkpt>
      <trkpt lat="47.09367" lon="6.7419">
        <ele>757</ele>
        <time>2024-11-10T08:25:08Z</time>
      </trkpt>
      <trkpt lat="47.09361" lon="6.74188">
        <ele>756</ele>
        <time>2024-11-10T08:25:16Z</time>
      </trkpt>
      <trkpt lat="47.09351" lon="6.74172">
        <ele>756</ele>
        <time>2024-11-10T08:25:36Z</time>
      </trkpt>
      <trkpt lat="47.09319" lon="6.7413">
        <ele>751</ele>
        <time>2024-11-10T08:26:33Z</time>
      </trkpt>
      <trkpt lat="47.09297" lon="6.74077">
        <ele>745</ele>
        <time>2024-11-10T08:27:30Z</time>
      </trkpt>
      <trkpt lat="47.09291" lon="6.74051">
        <ele>743</ele>
        <time>2024-11-10T08:27:54Z</time>
      </trkpt>
      <trkpt lat="47.09287" lon="6.74039">
        <ele>742</ele>
        <time>2024-11-10T08:28:07Z</time>
      </trkpt>
      <trkpt lat="47.09236" lon="6.73956">
        <ele>732</ele>
        <time>2024-11-10T08:29:48Z</time>
      </trkpt>
      <trkpt lat="47.0923" lon="6.73925">
        <ele>735</ele>
        <time>2024-11-10T08:30:17Z</time>
      </trkpt>
      <trkpt lat="47.09215" lon="6.73895">
        <ele>737</ele>
        <time>2024-11-10T08:30:51Z</time>
      </trkpt>
      <trkpt lat="47.09195" lon="6.73864">
        <ele>736</ele>
        <time>2024-11-10T08:31:30Z</time>
      </trkpt>
      <trkpt lat="47.09186" lon="6.7384">
        <ele>736</ele>
        <time>2024-11-10T08:31:55Z</time>
      </trkpt>
      <trkpt lat="47.09172" lon="6.73814">
        <ele>733</ele>
        <time>2024-11-10T08:32:25Z</time>
      </trkpt>
      <trkpt lat="47.09159" lon="6.73783">
        <ele>732</ele>
        <time>2024-11-10T08:32:58Z</time>
      </trkpt>
      <trkpt lat="47.09138" lon="6.73712">
        <ele>734</ele>
        <time>2024-11-10T08:34:08Z</time>
      </trkpt>
      <trkpt lat="47.09128" lon="6.7364">
        <ele>737</ele>
        <time>2024-11-10T08:35:15Z</time>
      </trkpt>
      <trkpt lat="47.09124" lon="6.73554">
        <ele>738</ele>
        <time>2024-11-10T08:36:34Z</time>
      </trkpt>
      <trkpt lat="47.09111" lon="6.7349">
        <ele>735</ele>
        <time>2024-11-10T08:37:34Z</time>
      </trkpt>
      <trkpt lat="47.09115" lon="6.73455">
        <ele>736</ele>
        <time>2024-11-10T08:38:06Z</time>
      </trkpt>
      <trkpt lat="47.09115" lon="6.73412">
        <ele>736</ele>
        <time>2024-11-10T08:38:46Z</time>
      </trkpt>
      <trkpt lat="47.09123" lon="6.73382">
        <ele>739</ele>
        <time>2024-11-10T08:39:15Z</time>
      </trkpt>
      <trkpt lat="47.09125" lon="6.73332">
        <ele>740</ele>
        <time>2024-11-10T08:40:00Z</time>
      </trkpt>
      <trkpt lat="47.09124" lon="6.73311">
        <ele>740</ele>
        <time>2024-11-10T08:40:19Z</time>
      </trkpt>
      <trkpt lat="47.0912" lon="6.73285">
        <ele>740</ele>
        <time>2024-11-10T08:40:44Z</time>
      </trkpt>
      <trkpt lat="47.0912" lon="6.73235">
        <ele>742</ele>
        <time>2024-11-10T08:41:29Z</time>
      </trkpt>
      <trkpt lat="47.09122" lon="6.73198">
        <ele>743</ele>
        <time>2024-11-10T08:42:03Z</time>
      </trkpt>
      <trkpt lat="47.0912" lon="6.73177">
        <ele>743</ele>
        <time>2024-11-10T08:42:22Z</time>
      </trkpt>
      <trkpt lat="47.09108" lon="6.73107">
        <ele>736</ele>
        <time>2024-11-10T08:43:28Z</time>
      </trkpt>
      <trkpt lat="47.091" lon="6.73049">
        <ele>731</ele>
        <time>2024-11-10T08:44:21Z</time>
      </trkpt>
      <trkpt lat="47.09099" lon="6.7302">
        <ele>730</ele>
        <time>2024-11-10T08:44:48Z</time>
      </trkpt>
      <trkpt lat="47.09104" lon="6.73001">
        <ele>731</ele>
        <time>2024-11-10T08:45:06Z</time>
      </trkpt>
      <trkpt lat="47.09108" lon="6.72993">
        <ele>732</ele>
        <time>2024-11-10T08:45:15Z</time>
      </trkpt>
      <trkpt lat="47.09123" lon="6.72978">
        <ele>735</ele>
        <time>2024-11-10T08:45:40Z</time>
      </trkpt>
      <trkpt lat="47.09135" lon="6.72971">
        <ele>738</ele>
        <time>2024-11-10T08:45:57Z</time>
      </trkpt>
      <trkpt lat="47.09144" lon="6.72963">
        <ele>739</ele>
        <time>2024-11-10T08:46:11Z</time>
      </trkpt>
      <trkpt lat="47.09155" lon="6.72948">
        <ele>738</ele>
        <time>2024-11-10T08:46:31Z</time>
      </trkpt>
      <trkpt lat="47.09166" lon="6.72926">
        <ele>734</ele>
        <time>2024-11-10T08:46:56Z</time>
      </trkpt>
      <trkpt lat="47.0919" lon="6.72899">
        <ele>747</ele>
        <time>2024-11-10T08:47:36Z</time>
      </trkpt>
      <trkpt lat="47.09208" lon="6.72872">
        <ele>756</ele>
        <time>2024-11-10T08:48:10Z</time>
      </trkpt>
      <trkpt lat="47.09223" lon="6.7284">
        <ele>762</ele>
        <time>2024-11-10T08:48:46Z</time>
      </trkpt>
      <trkpt lat="47.09234" lon="6.72798">
        <ele>760</ele>
        <time>2024-11-10T08:49:27Z</time>
      </trkpt>
      <trkpt lat="47.09243" lon="6.72779">
        <ele>761</ele>
        <time>2024-11-10T08:49:48Z</time>
      </trkpt>
      <trkpt lat="47.09244" lon="6.72768">
        <ele>759</ele>
        <time>2024-11-10T08:49:58Z</time>
      </trkpt>
      <trkpt lat="47.09243" lon="6.72758">
        <ele>756</ele>
        <time>2024-11-10T08:50:07Z</time>
      </trkpt>
      <trkpt lat="47.09228" lon="6.72707">
        <ele>750</ele>
        <time>2024-11-10T08:50:57Z</time>
      </trkpt>
      <trkpt lat="47.09221" lon="6.72688">
        <ele>748</ele>
        <time>2024-11-10T08:51:17Z</time>
      </trkpt>
      <trkpt lat="47.09219" lon="6.72683">
        <ele>747</ele>
        <time>2024-11-10T08:51:22Z</time>
      </trkpt>
      <trkpt lat="47.09222" lon="6.7268">
        <ele>749</ele>
        <time>2024-11-10T08:51:27Z</time>
      </trkpt>
      <trkpt lat="47.09242" lon="6.72645">
        <ele>756</ele>
        <time>2024-11-10T08:52:09Z</time>
      </trkpt>
      <trkpt lat="47.09248" lon="6.72631">
        <ele>759</ele>
        <time>2024-11-10T08:52:24Z</time>
      </trkpt>
      <trkpt lat="47.0925" lon="6.7262">
        <ele>760</ele>
        <time>2024-11-10T08:52:34Z</time>
      </trkpt>
      <trkpt lat="47.09252" lon="6.72602">
        <ele>762</ele>
        <time>2024-11-10T08:52:50Z</time>
      </trkpt>
      <trkpt lat="47.09251" lon="6.72585">
        <ele>761</ele>
        <time>2024-11-10T08:53:06Z</time>
      </trkpt>
      <trkpt lat="47.09243" lon="6.72547">
        <ele>766</ele>
        <time>2024-11-10T08:53:42Z</time>
      </trkpt>
      <trkpt lat="47.09221" lon="6.72504">
        <ele>764</ele>
        <time>2024-11-10T08:54:31Z</time>
      </trkpt>
      <trkpt lat="47.0918" lon="6.72439">
        <ele>758</ele>
        <time>2024-11-10T08:55:52Z</time>
      </trkpt>
      <trkpt lat="47.09175" lon="6.72424">
        <ele>759</ele>
        <time>2024-11-10T08:56:07Z</time>
      </trkpt>
      <trkpt lat="47.09172" lon="6.7241">
        <ele>761</ele>
        <time>2024-11-10T08:56:20Z</time>
      </trkpt>
      <trkpt lat="47.09166" lon="6.72398">
        <ele>762</ele>
        <time>2024-11-10T08:56:34Z</time>
      </trkpt>
      <trkpt lat="47.09158" lon="6.72386">
        <ele>764</ele>
        <time>2024-11-10T08:56:49Z</time>
      </trkpt>
      <trkpt lat="47.09141" lon="6.7237">
        <ele>762</ele>
        <time>2024-11-10T08:57:16Z</time>
      </trkpt>
      <trkpt lat="47.09134" lon="6.7236">
        <ele>762</ele>
        <time>2024-11-10T08:57:29Z</time>
      </trkpt>
      <trkpt lat="47.09105" lon="6.7231">
        <ele>761</ele>
        <time>2024-11-10T08:58:28Z</time>
      </trkpt>
      <trkpt lat="47.09053" lon="6.72233">
        <ele>757</ele>
        <time>2024-11-10T09:00:07Z</time>
      </trkpt>
      <trkpt lat="47.09032" lon="6.72194">
        <ele>755</ele>
        <time>2024-11-10T09:00:52Z</time>
      </trkpt>
      <trkpt lat="47.09025" lon="6.72158">
        <ele>757</ele>
        <time>2024-11-10T09:01:26Z</time>
      </trkpt>
      <trkpt lat="47.0902" lon="6.72142">
        <ele>755</ele>
        <time>2024-11-10T09:01:42Z</time>
      </trkpt>
      <trkpt lat="47.09017" lon="6.72131">
        <ele>754</ele>
        <time>2024-11-10T09:01:53Z</time>
      </trkpt>
      <trkpt lat="47.09018" lon="6.72095">
        <ele>758</ele>
        <time>2024-11-10T09:02:26Z</time>
      </trkpt>
      <trkpt lat="47.09013" lon="6.72059">
        <ele>757</ele>
        <time>2024-11-10T09:02:59Z</time>
      </trkpt>
      <trkpt lat="47.09004" lon="6.7202">
        <ele>751</ele>
        <time>2024-11-10T09:03:36Z</time>
      </trkpt>
      <trkpt lat="47.09004" lon="6.71979">
        <ele>758</ele>
        <time>2024-11-10T09:04:14Z</time>
      </trkpt>
      <trkpt lat="47.08998" lon="6.71914">
        <ele>766</ele>
        <time>2024-11-10T09:05:13Z</time>
      </trkpt>
      <trkpt lat="47.08997" lon="6.71904">
        <ele>766</ele>
        <time>2024-11-10T09:05:23Z</time>
      </trkpt>
      <trkpt lat="47.08988" lon="6.71879">
        <ele>763</ele>
        <time>2024-11-10T09:05:48Z</time>
      </trkpt>
      <trkpt lat="47.08982" lon="6.71859">
        <ele>761</ele>
        <time>2024-11-10T09:06:08Z</time>
      </trkpt>
      <trkpt lat="47.08978" lon="6.71833">
        <ele>761</ele>
        <time>2024-11-10T09:06:32Z</time>
      </trkpt>
      <trkpt lat="47.08971" lon="6.71806">
        <ele>759</ele>
        <time>2024-11-10T09:06:59Z</time>
      </trkpt>
      <trkpt lat="47.08964" lon="6.71788">
        <ele>756</ele>
        <time>2024-11-10T09:07:17Z</time>
      </trkpt>
      <trkpt lat="47.08959" lon="6.71771">
        <ele>755</ele>
        <time>2024-11-10T09:07:34Z</time>
      </trkpt>
      <trkpt lat="47.08949" lon="6.71682">
        <ele>761</ele>
        <time>2024-11-10T09:08:56Z</time>
      </trkpt>
      <trkpt lat="47.08942" lon="6.71645">
        <ele>762</ele>
        <time>2024-11-10T09:09:31Z</time>
      </trkpt>
      <trkpt lat="47.08936" lon="6.71624">
        <ele>762</ele>
        <time>2024-11-10T09:09:52Z</time>
      </trkpt>
      <trkpt lat="47.08924" lon="6.71586">
        <ele>760</ele>
        <time>2024-11-10T09:10:30Z</time>
      </trkpt>
      <trkpt lat="47.08905" lon="6.71547">
        <ele>760</ele>
        <time>2024-11-10T09:11:13Z</time>
      </trkpt>
      <trkpt lat="47.08887" lon="6.71497">
        <ele>760</ele>
        <time>2024-11-10T09:12:05Z</time>
      </trkpt>
      <trkpt lat="47.08882" lon="6.71474">
        <ele>761</ele>
        <time>2024-11-10T09:12:27Z</time>
      </trkpt>
      <trkpt lat="47.08861" lon="6.71418">
        <ele>761</ele>
        <time>2024-11-10T09:13:25Z</time>
      </trkpt>
      <trkpt lat="47.08815" lon="6.71341">
        <ele>765</ele>
        <time>2024-11-10T09:14:58Z</time>
      </trkpt>
      <trkpt lat="47.08796" lon="6.71322">
        <ele>768</ele>
        <time>2024-11-10T09:15:29Z</time>
      </trkpt>
      <trkpt lat="47.08786" lon="6.71308">
        <ele>772</ele>
        <time>2024-11-10T09:15:47Z</time>
      </trkpt>
      <trkpt lat="47.08778" lon="6.71289">
        <ele>777</ele>
        <time>2024-11-10T09:16:07Z</time>
      </trkpt>
      <trkpt lat="47.08771" lon="6.71263">
        <ele>785</ele>
        <time>2024-11-10T09:16:33Z</time>
      </trkpt>
      <trkpt lat="47.08727" lon="6.71264">
        <ele>778</ele>
        <time>2024-11-10T09:17:31Z</time>
      </trkpt>
      <trkpt lat="47.08745" lon="6.71277">
        <ele>777</ele>
        <time>2024-11-10T09:17:58Z</time>
      </trkpt>
      <trkpt lat="47.08727" lon="6.71264">
        <ele>778</ele>
        <time>2024-11-10T09:18:25Z</time>
      </trkpt>
      <trkpt lat="47.0872" lon="6.71257">
        <ele>778</ele>
        <time>2024-11-10T09:18:36Z</time>
      </trkpt>
      <trkpt lat="47.08706" lon="6.71237">
        <ele>780</ele>
        <time>2024-11-10T09:19:02Z</time>
      </trkpt>
      <trkpt lat="47.08693" lon="6.71224">
        <ele>780</ele>
        <time>2024-11-10T09:19:23Z</time>
      </trkpt>
      <trkpt lat="47.08673" lon="6.71198">
        <ele>779</ele>
        <time>2024-11-10T09:19:59Z</time>
      </trkpt>
      <trkpt lat="47.08666" lon="6.71184">
        <ele>779</ele>
        <time>2024-11-10T09:20:15Z</time>
      </trkpt>
      <trkpt lat="47.08658" lon="6.71148">
        <ele>783</ele>
        <time>2024-11-10T09:20:49Z</time>
      </trkpt>
      <trkpt lat="47.08654" lon="6.71141">
        <ele>783</ele>
        <time>2024-11-10T09:20:57Z</time>
      </trkpt>
      <trkpt lat="47.08646" lon="6.71134">
        <ele>782</ele>
        <time>2024-11-10T09:21:10Z</time>
      </trkpt>
      <trkpt lat="47.08638" lon="6.7113">
        <ele>781</ele>
        <time>2024-11-10T09:21:21Z</time>
      </trkpt>
      <trkpt lat="47.08629" lon="6.71129">
        <ele>779</ele>
        <time>2024-11-10T09:21:33Z</time>
      </trkpt>
      <trkpt lat="47.08589" lon="6.7114">
        <ele>769</ele>
        <time>2024-11-10T09:22:27Z</time>
      </trkpt>
      <trkpt lat="47.08583" lon="6.71139">
        <ele>768</ele>
        <time>2024-11-10T09:22:36Z</time>
      </trkpt>
      <trkpt lat="47.08562" lon="6.71116">
        <ele>769</ele>
        <time>2024-11-10T09:23:10Z</time>
      </trkpt>
      <trkpt lat="47.08529" lon="6.71089">
        <ele>767</ele>
        <time>2024-11-10T09:24:01Z</time>
      </trkpt>
      <trkpt lat="47.08524" lon="6.71073">
        <ele>767</ele>
        <time>2024-11-10T09:24:17Z</time>
      </trkpt>
      <trkpt lat="47.08522" lon="6.7105">
        <ele>766</ele>
        <time>2024-11-10T09:24:38Z</time>
      </trkpt>
      <trkpt lat="47.08534" lon="6.71007">
        <ele>770</ele>
        <time>2024-11-10T09:25:20Z</time>
      </trkpt>
      <trkpt lat="47.08535" lon="6.70997">
        <ele>771</ele>
        <time>2024-11-10T09:25:29Z</time>
      </trkpt>
      <trkpt lat="47.08534" lon="6.70985">
        <ele>772</ele>
        <time>2024-11-10T09:25:40Z</time>
      </trkpt>
      <trkpt lat="47.08528" lon="6.70961">
        <ele>772</ele>
        <time>2024-11-10T09:26:04Z</time>
      </trkpt>
      <trkpt lat="47.08516" lon="6.70938">
        <ele>770</ele>
        <time>2024-11-10T09:26:30Z</time>
      </trkpt>
      <trkpt lat="47.08519" lon="6.70923">
        <ele>773</ele>
        <time>2024-11-10T09:26:44Z</time>
      </trkpt>
      <trkpt lat="47.0852" lon="6.70904">
        <ele>776</ele>
        <time>2024-11-10T09:27:01Z</time>
      </trkpt>
      <trkpt lat="47.08518" lon="6.70888">
        <ele>778</ele>
        <time>2024-11-10T09:27:16Z</time>
      </trkpt>
      <trkpt lat="47.08515" lon="6.70875">
        <ele>780</ele>
        <time>2024-11-10T09:27:29Z</time>
      </trkpt>
      <trkpt lat="47.08506" lon="6.70852">
        <ele>782</ele>
        <time>2024-11-10T09:27:53Z</time>
      </trkpt>
      <trkpt lat="47.08482" lon="6.70813">
        <ele>785</ele>
        <time>2024-11-10T09:28:41Z</time>
      </trkpt>
      <trkpt lat="47.08476" lon="6.70804">
        <ele>786</ele>
        <time>2024-11-10T09:28:52Z</time>
      </trkpt>
      <trkpt lat="47.08467" lon="6.7078">
        <ele>790</ele>
        <time>2024-11-10T09:29:17Z</time>
      </trkpt>
      <trkpt lat="47.08455" lon="6.70763">
        <ele>790</ele>
        <time>2024-11-10T09:29:39Z</time>
      </trkpt>
      <trkpt lat="47.08454" lon="6.70755">
        <ele>792</ele>
        <time>2024-11-10T09:29:47Z</time>
      </trkpt>
      <trkpt lat="47.08458" lon="6.70752">
        <ele>795</ele>
        <time>2024-11-10T09:29:53Z</time>
      </trkpt>
      <trkpt lat="47.08468" lon="6.70754">
        <ele>798</ele>
        <time>2024-11-10T09:30:06Z</time>
      </trkpt>
      <trkpt lat="47.08502" lon="6.70766">
        <ele>808</ele>
        <time>2024-11-10T09:30:53Z</time>
      </trkpt>
      <trkpt lat="47.08502" lon="6.70762">
        <ele>809</ele>
        <time>2024-11-10T09:30:56Z</time>
      </trkpt>
      <trkpt lat="47.08541" lon="6.70772">
        <ele>815</ele>
        <time>2024-11-10T09:31:49Z</time>
      </trkpt>
      <trkpt lat="47.08586" lon="6.70781">
        <ele>822</ele>
        <time>2024-11-10T09:32:50Z</time>
      </trkpt>
      <trkpt lat="47.08667" lon="6.70755">
        <ele>838</ele>
        <time>2024-11-10T09:34:40Z</time>
      </trkpt>
      <trkpt lat="47.08694" lon="6.70741">
        <ele>841</ele>
        <time>2024-11-10T09:35:19Z</time>
      </trkpt>
      <trkpt lat="47.08706" lon="6.7073">
        <ele>844</ele>
        <time>2024-11-10T09:35:37Z</time>
      </trkpt>
      <trkpt lat="47.08718" lon="6.70709">
        <ele>852</ele>
        <time>2024-11-10T09:36:02Z</time>
      </trkpt>
      <trkpt lat="47.08723" lon="6.70708">
        <ele>853</ele>
        <time>2024-11-10T09:36:09Z</time>
      </trkpt>
      <trkpt lat="47.08718" lon="6.70709">
        <ele>852</ele>
        <time>2024-11-10T09:36:16Z</time>
      </trkpt>
      <trkpt lat="47.08682" lon="6.70708">
        <ele>855</ele>
        <time>2024-11-10T09:37:04Z</time>
      </trkpt>
      <trkpt lat="47.08646" lon="6.70696">
        <ele>858</ele>
        <time>2024-11-10T09:37:53Z</time>
      </trkpt>
      <trkpt lat="47.08626" lon="6.70669">
        <ele>866</ele>
        <time>2024-11-10T09:38:29Z</time>
      </trkpt>
      <trkpt lat="47.0858" lon="6.70628">
        <ele>868</ele>
        <time>2024-11-10T09:39:41Z</time>
      </trkpt>
      <trkpt lat="47.08556" lon="6.70616">
        <ele>867</ele>
        <time>2024-11-10T09:40:15Z</time>
      </trkpt>
      <trkpt lat="47.08536" lon="6.70602">
        <ele>867</ele>
        <time>2024-11-10T09:40:45Z</time>
      </trkpt>
      <trkpt lat="47.08529" lon="6.70592">
        <ele>868</ele>
        <time>2024-11-10T09:40:58Z</time>
      </trkpt>
      <trkpt lat="47.08525" lon="6.70583">
        <ele>870</ele>
        <time>2024-11-10T09:41:07Z</time>
      </trkpt>
      <trkpt lat="47.08521" lon="6.70568">
        <ele>871</ele>
        <time>2024-11-10T09:41:22Z</time>
      </trkpt>
      <trkpt lat="47.08517" lon="6.70517">
        <ele>876</ele>
        <time>2024-11-10T09:42:09Z</time>
      </trkpt>
      <trkpt lat="47.08516" lon="6.7047">
        <ele>881</ele>
        <time>2024-11-10T09:42:51Z</time>
      </trkpt>
      <trkpt lat="47.08513" lon="6.70447">
        <ele>883</ele>
        <time>2024-11-10T09:43:13Z</time>
      </trkpt>
      <trkpt lat="47.08526" lon="6.70357">
        <ele>888</ele>
        <time>2024-11-10T09:44:36Z</time>
      </trkpt>
      <trkpt lat="47.0853" lon="6.70341">
        <ele>889</ele>
        <time>2024-11-10T09:44:52Z</time>
      </trkpt>
      <trkpt lat="47.08536" lon="6.7031">
        <ele>890</ele>
        <time>2024-11-10T09:45:21Z</time>
      </trkpt>
      <trkpt lat="47.08545" lon="6.70269">
        <ele>892</ele>
        <time>2024-11-10T09:46:00Z</time>
      </trkpt>
      <trkpt lat="47.08554" lon="6.7021">
        <ele>897</ele>
        <time>2024-11-10T09:46:55Z</time>
      </trkpt>
      <trkpt lat="47.08558" lon="6.70211">
        <ele>897</ele>
        <time>2024-11-10T09:47:01Z</time>
      </trkpt>
    </trkseg>
  </trk>
</gpx>